This is the latest recevied weather packets stored in our database for station/object CQ0XPG-11. If no packets are shown the sender has not sent any weather packets the latest 1 day(s).
| Time | Temp. | Humidity | Pressure | Rain* | Wind** | Luminosity | Snow |
|---|---|---|---|---|---|---|---|
| 1777991119 | 16.67° C | 61% | 1006.5 hPa | 0 mm | 0.89 m/s, 337° | - | - |
| 1777990788 | 16.67° C | 61% | 1006.5 hPa | 0 mm | 2.68 m/s, 337° | - | - |
| 1777990492 | 16.67° C | 65% | 1006.5 hPa | 0 mm | 0.45 m/s, 337° | - | - |
| 1777990193 | 16.67° C | 63% | 1006.7 hPa | 0 mm | 2.24 m/s, 337° | - | - |
| 1777989883 | 16.67° C | 61% | 1006.7 hPa | 0 mm | 0.45 m/s, 337° | - | - |
| 1777989577 | 16.67° C | 62% | 1006.7 hPa | 0 mm | 1.79 m/s, 337° | - | - |
| 1777989283 | 16.11° C | 68% | 1006.7 hPa | 0 mm | 0.45 m/s, 337° | - | - |
| 1777988670 | 16.11° C | 67% | 1006.8 hPa | 0 mm | 0.45 m/s, 337° | - | - |
| 1777988369 | 16.11° C | 62% | 1006.8 hPa | 0 mm | 1.34 m/s, 337° | - | - |
| 1777987756 | 16.67° C | 58% | 1006.9 hPa | 0 mm | 2.24 m/s, 337° | - | - |
| 1777987465 | 16.67° C | 61% | 1006.8 hPa | 0 mm | 0.45 m/s, 337° | - | - |
| 1777987159 | 16.67° C | 61% | 1006.8 hPa | 0 mm | 0.89 m/s, 337° | - | - |
| 1777986851 | 16.67° C | 60% | 1007 hPa | 0 mm | 0.45 m/s, 337° | - | - |
| 1777986540 | 16.11° C | 60% | 1007 hPa | 0 mm | 1.34 m/s, 337° | - | - |
| 1777986246 | 16.67° C | 58% | 1007 hPa | 0 mm | 4.02 m/s, 337° | - | - |
| 1777985949 | 16.67° C | 57% | 1007.1 hPa | 0 mm | 1.79 m/s, 337° | - | - |
| 1777985655 | 16.67° C | 58% | 1007.1 hPa | 0 mm | 1.34 m/s, 337° | - | - |
| 1777985027 | 17.22° C | 55% | 1007 hPa | 0 mm | 1.34 m/s, 337° | - | - |
| 1777984720 | 16.67° C | 59% | 1006.9 hPa | 0 mm | 1.34 m/s, 225° | - | - |
| 1777984437 | 16.67° C | 58% | 1007.1 hPa | 0 mm | 1.34 m/s, 225° | - | - |
| 1777984113 | 16.67° C | 58% | 1007.2 hPa | 0 mm | 0.45 m/s, 337° | - | - |
| 1777983507 | 15.56° C | 63% | 1007.3 hPa | 0 mm | 0.45 m/s, 337° | - | - |
| 1777982901 | 16.11° C | 59% | 1007.4 hPa | 0 mm | 3.13 m/s, 337° | - | - |
| 1777982608 | 16.67° C | 56% | 1007.4 hPa | 0 mm | 1.79 m/s, 337° | - | - |
| 1777982294 | 16.67° C | 56% | 1007.4 hPa | 0 mm | 0.89 m/s, 337° | - | - |
* Rain since midnight (hover to see other rain measurements)
** Current wind speed in m/s (hover to see current wind gust speed)